LEW weather

Auburn Lewiston Municipal Airport
Auburn/Lewiston, Maine, United States

Public forecast

Using degrees Fahrenheit for public forecast. Weather courtesy of forecast.io.

Current aviation weather report (METAR) for Auburn Lewiston Municipal Airport

Retrieved 2019/11/12 02:23 UTC (0 seconds ago):

KLEW 120223Z AUTO 02008KT 6SM UP BR OVC009 M02/M03 A3011 RMK AO2 CIG 007V013 P0000 FZRANO

Closest aviation forecast (TAF) to Auburn Lewiston Municipal Airport

Closest forecast is Portland International Jetport, 24.2 nm (44.8 km) S. Retrieved 2019-11-12 00:39 UTC (2 hours ago):

TAF KPWM 112336Z 1200/1224 02011KT 6SM -SNRA BR OVC011 FM120200 01006KT 5SM -SHRA BR OVC003 FM121400 28007KT P6SM -SHRA BKN015 FM121800 30012G23KT P6SM OVC050